createdAt,value
2023-01-29T00:00:18.958Z,0.68
2023-01-29T00:01:19.842Z,0.66
2023-01-29T00:02:18.666Z,0.65
2023-01-29T00:03:18.729Z,0.62
2023-01-29T00:04:18.580Z,0.62
2023-01-29T00:05:27.414Z,0.66
2023-01-29T00:06:18.561Z,0.61
2023-01-29T00:07:18.748Z,0.62
2023-01-29T00:08:18.630Z,0.65
2023-01-29T00:09:18.484Z,0.65
2023-01-29T00:10:18.885Z,0.68
2023-01-29T00:11:18.452Z,0.68
2023-01-29T00:12:18.762Z,0.65
2023-01-29T00:13:18.471Z,0.68
2023-01-29T00:14:18.622Z,0.68
2023-01-29T00:15:18.496Z,0.68
2023-01-29T00:16:18.686Z,0.69
2023-01-29T00:17:18.442Z,0.66
2023-01-29T00:18:18.637Z,0.66
2023-01-29T00:19:18.356Z,0.66
2023-01-29T00:20:18.953Z,0.60
2023-01-29T00:21:18.381Z,0.61
2023-01-29T00:22:18.595Z,0.58
2023-01-29T00:23:18.335Z,0.55
2023-01-29T00:24:18.614Z,0.57
2023-01-29T00:25:18.322Z,0.55
2023-01-29T00:26:18.485Z,0.53
2023-01-29T00:27:18.265Z,0.51
2023-01-29T00:28:18.473Z,0.50
2023-01-29T00:29:18.390Z,0.53
2023-01-29T00:30:18.613Z,0.53
2023-01-29T00:31:19.456Z,0.55
2023-01-29T00:32:18.372Z,0.53
2023-01-29T00:33:18.319Z,0.58
2023-01-29T00:34:18.208Z,0.57
2023-01-29T00:35:18.345Z,0.51
2023-01-29T00:36:18.179Z,0.53
2023-01-29T00:37:18.404Z,0.53
2023-01-29T00:38:18.147Z,0.55
2023-01-29T00:39:18.266Z,0.57
2023-01-29T00:40:18.427Z,0.55
2023-01-29T00:41:18.181Z,0.58
2023-01-29T00:42:18.132Z,0.58
2023-01-29T00:43:18.286Z,0.65
2023-01-29T00:44:18.091Z,0.69
2023-01-29T00:45:18.220Z,0.72
2023-01-29T00:46:18.127Z,0.75
2023-01-29T00:47:18.253Z,0.76
2023-01-29T00:48:18.038Z,0.78
2023-01-29T00:49:18.125Z,0.72
2023-01-29T00:50:18.792Z,0.70
2023-01-29T00:51:19.291Z,0.70
2023-01-29T00:52:17.983Z,0.66
2023-01-29T00:53:18.094Z,0.65
2023-01-29T00:54:17.980Z,0.62
2023-01-29T00:55:18.060Z,0.62
2023-01-29T00:56:17.926Z,0.66
2023-01-29T00:57:24.929Z,0.69
2023-01-29T00:58:17.904Z,0.70
2023-01-29T00:59:18.146Z,0.73
2023-01-29T01:00:18.605Z,0.75
2023-01-29T01:01:17.908Z,0.76
2023-01-29T01:02:18.064Z,0.76
2023-01-29T01:03:17.847Z,0.80
2023-01-29T01:04:18.104Z,0.80
2023-01-29T01:05:17.904Z,0.83
2023-01-29T01:06:17.981Z,0.80
2023-01-29T01:07:17.772Z,0.84
2023-01-29T01:08:17.982Z,0.83
2023-01-29T01:09:17.763Z,0.84
2023-01-29T01:10:18.280Z,0.86
2023-01-29T01:11:17.713Z,0.87
2023-01-29T01:12:17.786Z,0.87
2023-01-29T01:13:17.698Z,0.87
2023-01-29T01:14:17.922Z,0.87
2023-01-29T01:15:17.723Z,0.88
2023-01-29T01:16:17.953Z,0.93
2023-01-29T01:17:17.676Z,0.94
2023-01-29T01:18:17.837Z,0.96
2023-01-29T01:19:17.652Z,0.96
2023-01-29T01:20:18.109Z,0.94
2023-01-29T01:21:17.781Z,0.94
2023-01-29T01:22:17.615Z,0.94
2023-01-29T01:23:17.738Z,0.90
2023-01-29T01:24:17.623Z,0.90
2023-01-29T01:25:17.772Z,0.88
2023-01-29T01:26:17.848Z,0.91
2023-01-29T01:27:17.534Z,0.93
2023-01-29T01:28:17.714Z,0.93
2023-01-29T01:29:17.500Z,0.93
2023-01-29T01:30:18.127Z,0.96
2023-01-29T01:31:17.606Z,0.93
2023-01-29T01:32:17.638Z,0.93
2023-01-29T01:33:17.493Z,0.87
2023-01-29T01:34:17.581Z,0.88
2023-01-29T01:35:17.451Z,0.83
2023-01-29T01:36:18.731Z,0.80
2023-01-29T01:37:17.418Z,0.79
2023-01-29T01:38:17.655Z,0.79
2023-01-29T01:39:17.380Z,0.80
2023-01-29T01:40:17.773Z,0.80
2023-01-29T01:41:17.374Z,0.84
2023-01-29T01:42:17.543Z,0.86
2023-01-29T01:43:17.333Z,0.84
2023-01-29T01:44:17.506Z,0.83
2023-01-29T01:45:17.284Z,0.83
2023-01-29T01:46:17.518Z,0.87
2023-01-29T01:47:17.291Z,0.86
2023-01-29T01:48:17.479Z,0.83
2023-01-29T01:49:17.278Z,0.78
2023-01-29T01:50:17.787Z,0.75
2023-01-29T01:51:17.222Z,0.72
2023-01-29T01:52:17.359Z,0.72
2023-01-29T01:53:17.191Z,0.75
2023-01-29T01:54:17.371Z,0.73
2023-01-29T01:55:17.239Z,0.73
2023-01-29T01:56:17.277Z,0.80
2023-01-29T01:57:17.175Z,0.80
2023-01-29T01:58:17.205Z,0.80
2023-01-29T01:59:17.363Z,0.86
2023-01-29T02:00:17.470Z,0.83
2023-01-29T02:01:17.290Z,0.79
2023-01-29T02:02:17.106Z,0.73
2023-01-29T02:03:17.333Z,0.73
2023-01-29T02:04:17.085Z,0.75
2023-01-29T02:05:17.152Z,0.76
2023-01-29T02:06:17.065Z,0.73
2023-01-29T02:07:17.187Z,0.76
2023-01-29T02:08:17.010Z,0.76
2023-01-29T02:09:17.222Z,0.75
2023-01-29T02:10:17.323Z,0.79
2023-01-29T02:11:17.181Z,0.79
2023-01-29T02:12:16.976Z,0.83
2023-01-29T02:13:17.221Z,0.87
2023-01-29T02:14:16.941Z,0.84
2023-01-29T02:15:17.074Z,0.80
2023-01-29T02:16:16.911Z,0.78
2023-01-29T02:17:17.219Z,0.75
2023-01-29T02:18:17.118Z,0.70
2023-01-29T02:19:16.898Z,0.68
2023-01-29T02:20:17.254Z,0.62
2023-01-29T02:21:16.876Z,0.60
2023-01-29T02:22:17.066Z,0.57
2023-01-29T02:23:17.071Z,0.57
2023-01-29T02:24:16.953Z,0.53
2023-01-29T02:25:16.940Z,0.51
2023-01-29T02:26:16.808Z,0.51
2023-01-29T02:27:17.054Z,0.51
2023-01-29T02:28:16.854Z,0.51
2023-01-29T02:29:16.910Z,0.51
2023-01-29T02:30:17.034Z,0.50
2023-01-29T02:31:16.963Z,0.51
2023-01-29T02:32:16.703Z,0.51
2023-01-29T02:33:16.823Z,0.50
2023-01-29T02:34:16.680Z,0.50
2023-01-29T02:35:16.839Z,0.47
2023-01-29T02:36:16.703Z,0.42
2023-01-29T02:37:16.859Z,0.39
2023-01-29T02:38:16.642Z,0.38
2023-01-29T02:39:16.775Z,0.35
2023-01-29T02:40:16.862Z,0.35
2023-01-29T02:41:17.868Z,0.33
2023-01-29T02:42:16.607Z,0.36
2023-01-29T02:43:16.694Z,0.38
2023-01-29T02:44:16.781Z,0.38
2023-01-29T02:45:16.593Z,0.46
2023-01-29T02:46:16.969Z,0.44
2023-01-29T02:47:16.568Z,0.50
2023-01-29T02:48:16.710Z,0.47
2023-01-29T02:49:17.764Z,0.47
2023-01-29T02:50:16.936Z,0.46
2023-01-29T02:51:16.733Z,0.46
2023-01-29T02:52:16.513Z,0.44
2023-01-29T02:53:16.573Z,0.42
2023-01-29T02:54:16.471Z,0.44
2023-01-29T02:55:16.685Z,0.41
2023-01-29T02:56:16.432Z,0.41
2023-01-29T02:57:16.545Z,0.46
2023-01-29T02:58:16.395Z,0.47
2023-01-29T02:59:16.533Z,0.47
2023-01-29T03:00:16.759Z,0.47
2023-01-29T03:01:22.708Z,0.50
2023-01-29T03:02:16.656Z,0.49
2023-01-29T03:03:16.369Z,0.47
2023-01-29T03:04:16.465Z,0.44
2023-01-29T03:05:16.334Z,0.46
2023-01-29T03:06:16.542Z,0.46
2023-01-29T03:07:16.320Z,0.42
2023-01-29T03:08:16.345Z,0.46
2023-01-29T03:09:16.326Z,0.42
2023-01-29T03:10:16.685Z,0.44
2023-01-29T03:11:16.264Z,0.41
2023-01-29T03:12:18.748Z,0.42
2023-01-29T03:13:16.276Z,0.41
2023-01-29T03:14:16.434Z,0.46
2023-01-29T03:15:16.476Z,0.46
2023-01-29T03:16:17.308Z,0.50
2023-01-29T03:17:17.451Z,0.51
2023-01-29T03:18:16.167Z,0.55
2023-01-29T03:19:16.335Z,0.53
2023-01-29T03:20:16.438Z,0.51
2023-01-29T03:21:16.346Z,0.51
2023-01-29T03:22:16.088Z,0.51
2023-01-29T03:23:16.263Z,0.51
2023-01-29T03:24:16.115Z,0.53
2023-01-29T03:25:16.326Z,0.55
2023-01-29T03:26:16.058Z,0.57
2023-01-29T03:27:16.273Z,0.60
2023-01-29T03:28:16.024Z,0.65
2023-01-29T03:29:16.300Z,0.66
2023-01-29T03:30:16.363Z,0.68
2023-01-29T03:31:16.236Z,0.72
2023-01-29T03:32:15.994Z,0.73
2023-01-29T03:33:16.125Z,0.73
2023-01-29T03:34:15.944Z,0.73
2023-01-29T03:35:16.126Z,0.78
2023-01-29T03:36:16.118Z,0.76
2023-01-29T03:37:15.986Z,0.78
2023-01-29T03:38:16.144Z,0.75
2023-01-29T03:39:15.931Z,0.70
2023-01-29T03:40:16.464Z,0.73
2023-01-29T03:41:16.074Z,0.73
2023-01-29T03:42:15.864Z,0.75
2023-01-29T03:43:16.147Z,0.73
2023-01-29T03:44:15.825Z,0.73
2023-01-29T03:45:16.009Z,0.72
2023-01-29T03:46:15.835Z,0.70
2023-01-29T03:47:15.915Z,0.73
2023-01-29T03:48:15.813Z,0.69
2023-01-29T03:49:15.936Z,0.72
2023-01-29T03:50:16.153Z,0.68
2023-01-29T03:51:15.944Z,0.69
2023-01-29T03:52:15.750Z,0.69
2023-01-29T03:53:15.961Z,0.70
2023-01-29T03:54:15.693Z,0.73
2023-01-29T03:55:15.870Z,0.75
2023-01-29T03:56:15.668Z,0.75
2023-01-29T03:57:15.950Z,0.70
2023-01-29T03:58:15.640Z,0.70
2023-01-29T03:59:15.801Z,0.69
2023-01-29T04:00:16.045Z,0.69
2023-01-29T04:01:15.920Z,0.66
2023-01-29T04:02:15.609Z,0.68
2023-01-29T04:03:15.726Z,0.62
2023-01-29T04:04:15.625Z,0.62
2023-01-29T04:05:15.846Z,0.61
2023-01-29T04:06:15.559Z,0.62
2023-01-29T04:07:15.635Z,0.62
2023-01-29T04:08:15.563Z,0.61
2023-01-29T04:09:15.775Z,0.58
2023-01-29T04:10:15.832Z,0.60
2023-01-29T04:11:15.666Z,0.57
2023-01-29T04:12:16.207Z,0.58
2023-01-29T04:13:16.340Z,0.57
2023-01-29T04:14:15.442Z,0.53
2023-01-29T04:15:15.605Z,0.53
2023-01-29T04:16:15.434Z,0.50
2023-01-29T04:17:15.612Z,0.47
2023-01-29T04:18:15.386Z,0.44
2023-01-29T04:19:15.584Z,0.42
2023-01-29T04:20:15.993Z,0.42
2023-01-29T04:21:15.637Z,0.38
2023-01-29T04:22:15.350Z,0.39
2023-01-29T04:23:15.453Z,0.36
2023-01-29T04:24:15.493Z,0.36
2023-01-29T04:25:15.461Z,0.39
2023-01-29T04:26:15.290Z,0.44
2023-01-29T04:27:15.539Z,0.47
2023-01-29T04:28:15.262Z,0.46
2023-01-29T04:29:15.447Z,0.50
2023-01-29T04:30:15.522Z,0.47
2023-01-29T04:31:15.550Z,0.46
2023-01-29T04:32:15.258Z,0.41
2023-01-29T04:33:15.310Z,0.41
2023-01-29T04:34:15.180Z,0.36
2023-01-29T04:35:15.373Z,0.35
2023-01-29T04:36:15.173Z,0.32
2023-01-29T04:37:15.346Z,0.32
2023-01-29T04:38:15.136Z,0.28
2023-01-29T04:39:15.356Z,0.29
2023-01-29T04:40:15.546Z,0.31
2023-01-29T04:41:15.374Z,0.29
2023-01-29T04:42:15.097Z,0.29
2023-01-29T04:43:15.185Z,0.32
2023-01-29T04:44:15.071Z,0.32
2023-01-29T04:45:15.192Z,0.32
2023-01-29T04:46:15.067Z,0.36
2023-01-29T04:47:15.242Z,0.41
2023-01-29T04:48:15.009Z,0.41
2023-01-29T04:49:15.217Z,0.44
2023-01-29T04:50:15.324Z,0.46
2023-01-29T04:51:15.290Z,0.49
2023-01-29T04:52:14.964Z,0.51
2023-01-29T04:53:15.268Z,0.60
2023-01-29T04:54:14.945Z,0.60
2023-01-29T04:55:15.056Z,0.65
2023-01-29T04:56:14.908Z,0.62
2023-01-29T04:57:15.228Z,0.62
2023-01-29T04:58:14.885Z,0.53
2023-01-29T04:59:15.088Z,0.47
2023-01-29T05:00:15.291Z,0.46
2023-01-29T05:01:15.001Z,0.41
2023-01-29T05:02:14.847Z,0.42
2023-01-29T05:03:15.165Z,0.39
2023-01-29T05:04:14.971Z,0.38
2023-01-29T05:05:14.859Z,0.35
2023-01-29T05:06:14.916Z,0.39
2023-01-29T05:07:14.854Z,0.39
2023-01-29T05:08:14.933Z,0.41
2023-01-29T05:09:14.791Z,0.46
2023-01-29T05:10:15.400Z,0.46
2023-01-29T05:11:14.764Z,0.46
2023-01-29T05:12:14.847Z,0.50
2023-01-29T05:13:14.764Z,0.50
2023-01-29T05:14:14.961Z,0.46
2023-01-29T05:15:14.706Z,0.44
2023-01-29T05:16:14.866Z,0.42
2023-01-29T05:17:14.672Z,0.41
2023-01-29T05:18:14.829Z,0.41
2023-01-29T05:19:14.741Z,0.42
2023-01-29T05:20:15.064Z,0.42
2023-01-29T05:21:14.635Z,0.42
2023-01-29T05:22:14.729Z,0.42
2023-01-29T05:23:14.613Z,0.41
2023-01-29T05:24:16.004Z,0.36
2023-01-29T05:25:14.601Z,0.35
2023-01-29T05:26:14.655Z,0.35
2023-01-29T05:27:14.568Z,0.36
2023-01-29T05:28:14.664Z,0.41
2023-01-29T05:29:14.567Z,0.44
2023-01-29T05:30:15.211Z,0.50
2023-01-29T05:31:14.624Z,0.55
2023-01-29T05:32:14.692Z,0.62
2023-01-29T05:33:14.486Z,0.68
2023-01-29T05:34:14.742Z,0.69
2023-01-29T05:35:14.501Z,0.70
2023-01-29T05:36:14.616Z,0.69
2023-01-29T05:37:14.426Z,0.72
2023-01-29T05:38:14.525Z,0.75
2023-01-29T05:39:14.416Z,0.70
2023-01-29T05:40:14.916Z,0.62
2023-01-29T05:41:14.438Z,0.60
2023-01-29T05:42:14.555Z,0.49
2023-01-29T05:43:14.356Z,0.41
2023-01-29T05:44:14.580Z,0.44
2023-01-29T05:45:14.367Z,0.42
2023-01-29T05:46:14.602Z,0.46
2023-01-29T05:47:14.307Z,0.46
2023-01-29T05:48:14.386Z,0.47
2023-01-29T05:49:14.312Z,0.49
2023-01-29T05:50:14.788Z,0.46
2023-01-29T05:51:14.481Z,0.47
2023-01-29T05:52:14.231Z,0.46
2023-01-29T05:53:14.442Z,0.44
2023-01-29T05:54:14.201Z,0.46
2023-01-29T05:55:14.347Z,0.44
2023-01-29T05:56:14.422Z,0.46
2023-01-29T05:57:14.186Z,0.47
2023-01-29T05:58:14.382Z,0.50
2023-01-29T05:59:14.163Z,0.58
2023-01-29T06:00:14.690Z,0.60
2023-01-29T06:01:14.171Z,0.65
2023-01-29T06:02:14.287Z,0.72
2023-01-29T06:03:14.123Z,0.75
2023-01-29T06:04:14.300Z,0.79
2023-01-29T06:05:14.102Z,0.83
2023-01-29T06:06:14.372Z,0.84
2023-01-29T06:07:14.071Z,0.84
2023-01-29T06:08:14.234Z,0.83
2023-01-29T06:09:14.054Z,0.83
2023-01-29T06:10:14.419Z,0.80
2023-01-29T06:11:14.059Z,0.80
2023-01-29T06:12:14.254Z,0.78
2023-01-29T06:13:13.981Z,0.70
2023-01-29T06:14:14.176Z,0.62
2023-01-29T06:15:13.935Z,0.49
2023-01-29T06:16:14.266Z,0.32
2023-01-29T06:17:14.263Z,0.24
2023-01-29T06:18:13.918Z,0.17
2023-01-29T06:19:14.097Z,0.15
2023-01-29T06:20:14.041Z,0.14
2023-01-29T06:21:14.120Z,0.15
2023-01-29T06:22:14.145Z,0.17
2023-01-29T06:23:13.858Z,0.15
2023-01-29T06:24:14.198Z,0.15
2023-01-29T06:25:13.835Z,0.17
2023-01-29T06:26:14.994Z,0.18
2023-01-29T06:27:13.793Z,0.18
2023-01-29T06:28:14.107Z,0.20
2023-01-29T06:29:13.798Z,0.23
2023-01-29T06:30:14.129Z,0.26
2023-01-29T06:31:35.262Z,0.26
2023-01-29T06:32:13.846Z,0.24
2023-01-29T06:33:13.997Z,0.24
2023-01-29T06:34:13.763Z,0.26
2023-01-29T06:35:13.887Z,0.28
2023-01-29T06:36:13.689Z,0.24
2023-01-29T06:37:15.620Z,0.24
2023-01-29T06:38:13.769Z,0.28
2023-01-29T06:39:13.852Z,0.32
2023-01-29T06:40:13.710Z,0.31
2023-01-29T06:41:13.735Z,0.35
2023-01-29T06:42:13.635Z,0.35
2023-01-29T06:43:13.752Z,0.36
2023-01-29T06:44:13.633Z,0.36
2023-01-29T06:45:13.681Z,0.35
2023-01-29T06:46:13.792Z,0.38
2023-01-29T06:47:13.844Z,0.38
2023-01-29T06:48:13.758Z,0.38
2023-01-29T06:49:13.527Z,0.42
2023-01-29T06:50:13.789Z,0.46
2023-01-29T06:51:13.497Z,0.44
2023-01-29T06:52:13.743Z,0.47
2023-01-29T06:53:13.491Z,0.47
2023-01-29T06:54:13.684Z,0.46
2023-01-29T06:55:13.475Z,0.42
2023-01-29T06:56:13.558Z,0.41
2023-01-29T06:57:13.457Z,0.39
2023-01-29T06:58:14.315Z,0.35
2023-01-29T06:59:13.400Z,0.31
2023-01-29T07:00:14.890Z,0.29
2023-01-29T07:01:25.456Z,0.28
2023-01-29T07:02:14.187Z,0.26
2023-01-29T07:03:14.962Z,0.29
2023-01-29T07:04:13.384Z,0.31
2023-01-29T07:05:13.579Z,0.26
2023-01-29T07:06:14.854Z,0.31
2023-01-29T07:07:13.516Z,0.24
2023-01-29T07:08:13.307Z,0.26
2023-01-29T07:09:13.437Z,0.23
2023-01-29T07:10:13.310Z,0.17
2023-01-29T07:11:13.451Z,0.13
2023-01-29T07:12:13.317Z,0.11
2023-01-29T07:13:14.378Z,0.07
2023-01-29T07:14:13.374Z,-0.03
2023-01-29T07:15:13.208Z,-0.08
2023-01-29T07:16:13.413Z,-0.15
2023-01-29T07:17:13.192Z,-0.18
2023-01-29T07:18:13.407Z,-0.15
2023-01-29T07:19:13.171Z,-0.11
2023-01-29T07:20:13.342Z,-0.11
2023-01-29T07:21:13.130Z,-0.10
2023-01-29T07:22:13.346Z,-0.07
2023-01-29T07:23:13.119Z,-0.05
2023-01-29T07:24:13.453Z,-0.04
2023-01-29T07:25:13.151Z,-0.03
2023-01-29T07:26:13.280Z,-0.01
2023-01-29T07:27:13.061Z,-0.05
2023-01-29T07:28:13.162Z,-0.10
2023-01-29T07:29:13.056Z,-0.19
2023-01-29T07:30:13.250Z,-0.22
2023-01-29T07:31:13.102Z,-0.28
2023-01-29T07:32:14.440Z,-0.31
2023-01-29T07:33:13.143Z,-0.33
2023-01-29T07:34:13.121Z,-0.29
2023-01-29T07:35:13.206Z,-0.28
2023-01-29T07:36:12.976Z,-0.31
2023-01-29T07:37:13.262Z,-0.31
2023-01-29T07:38:12.947Z,-0.33
2023-01-29T07:39:13.032Z,-0.29
2023-01-29T07:40:13.133Z,-0.29
2023-01-29T07:41:12.959Z,-0.28
2023-01-29T07:42:13.093Z,-0.26
2023-01-29T07:43:12.861Z,-0.28
2023-01-29T07:44:14.107Z,-0.26
2023-01-29T07:45:12.845Z,-0.19
2023-01-29T07:46:13.104Z,-0.18
2023-01-29T07:47:12.839Z,-0.11
2023-01-29T07:48:13.024Z,-0.05
2023-01-29T07:49:12.789Z,-0.05
2023-01-29T07:50:12.959Z,-0.01
2023-01-29T07:51:12.867Z,-0.03
2023-01-29T07:52:12.963Z,0.02
2023-01-29T07:53:12.747Z,0.07
2023-01-29T07:54:12.968Z,0.08
2023-01-29T07:55:12.735Z,0.11
2023-01-29T07:56:12.963Z,0.15
2023-01-29T07:57:12.756Z,0.18
2023-01-29T07:58:12.995Z,0.23
2023-01-29T07:59:12.687Z,0.28
2023-01-29T08:00:12.824Z,0.32
2023-01-29T08:01:13.839Z,0.35
2023-01-29T08:02:12.703Z,0.38
2023-01-29T08:03:12.826Z,0.42
2023-01-29T08:04:12.628Z,0.47
2023-01-29T08:05:12.815Z,0.46
2023-01-29T08:06:12.898Z,0.44
2023-01-29T08:07:13.597Z,0.44
2023-01-29T08:08:12.882Z,0.44
2023-01-29T08:09:12.550Z,0.41
2023-01-29T08:10:12.872Z,0.41
2023-01-29T08:11:12.603Z,0.38
2023-01-29T08:12:13.723Z,0.39
2023-01-29T08:13:12.579Z,0.41
2023-01-29T08:14:12.702Z,0.41
2023-01-29T08:15:12.530Z,0.44
2023-01-29T08:16:12.747Z,0.47
2023-01-29T08:17:12.437Z,0.46
2023-01-29T08:18:12.745Z,0.49
2023-01-29T08:19:13.295Z,0.47
2023-01-29T08:20:12.573Z,0.51
2023-01-29T08:21:13.798Z,0.49
2023-01-29T08:22:12.646Z,0.49
2023-01-29T08:23:12.522Z,0.53
2023-01-29T08:24:12.667Z,0.51
2023-01-29T08:25:12.358Z,0.50
2023-01-29T08:26:12.503Z,0.49
2023-01-29T08:27:12.459Z,0.50
2023-01-29T08:28:12.400Z,0.55
2023-01-29T08:29:12.473Z,0.58
2023-01-29T08:30:12.589Z,0.62
2023-01-29T08:31:12.588Z,0.66
2023-01-29T08:32:12.548Z,0.68
2023-01-29T08:33:12.253Z,0.62
2023-01-29T08:34:12.527Z,0.55
2023-01-29T08:35:12.209Z,0.55
2023-01-29T08:36:12.550Z,0.53
2023-01-29T08:37:12.232Z,0.44
2023-01-29T08:38:13.365Z,0.35
2023-01-29T08:39:12.173Z,0.26
2023-01-29T08:40:12.369Z,0.21
2023-01-29T08:41:12.161Z,0.18
2023-01-29T08:42:12.306Z,0.15
2023-01-29T08:43:12.149Z,0.11
2023-01-29T08:44:12.350Z,0.14
2023-01-29T08:45:12.102Z,0.13
2023-01-29T08:46:12.360Z,0.15
2023-01-29T08:47:12.113Z,0.23
2023-01-29T08:48:12.375Z,0.24
2023-01-29T08:49:12.044Z,0.31
2023-01-29T08:50:12.324Z,0.33
2023-01-29T08:51:12.027Z,0.44
2023-01-29T08:52:13.375Z,0.50
2023-01-29T08:53:13.163Z,0.58
2023-01-29T08:54:12.105Z,0.62
2023-01-29T08:55:12.151Z,0.75
2023-01-29T08:56:11.993Z,0.84
2023-01-29T08:57:12.156Z,0.93
2023-01-29T08:58:12.171Z,1.02
2023-01-29T08:59:11.968Z,1.09
2023-01-29T09:00:12.258Z,1.14
2023-01-29T09:01:11.955Z,1.16
2023-01-29T09:02:12.225Z,1.22
2023-01-29T09:03:11.896Z,1.20
2023-01-29T09:04:12.047Z,1.16
2023-01-29T09:05:11.869Z,1.12
2023-01-29T09:06:12.038Z,1.08
2023-01-29T09:07:11.844Z,1.06
2023-01-29T09:08:12.165Z,0.98
2023-01-29T09:09:11.878Z,0.88
2023-01-29T09:10:12.061Z,0.80
2023-01-29T09:11:11.779Z,0.73
2023-01-29T09:12:12.073Z,0.72
2023-01-29T09:13:11.793Z,0.69
2023-01-29T09:14:11.892Z,0.57
2023-01-29T09:15:11.753Z,0.61
2023-01-29T09:16:11.981Z,0.62
2023-01-29T09:17:11.707Z,0.60
2023-01-29T09:18:11.946Z,0.55
2023-01-29T09:19:11.799Z,0.53
2023-01-29T09:20:11.690Z,0.51
2023-01-29T09:21:11.992Z,0.55
2023-01-29T09:22:12.028Z,0.57
2023-01-29T09:23:11.845Z,0.57
2023-01-29T09:24:11.851Z,0.57
2023-01-29T09:25:11.591Z,0.62
2023-01-29T09:26:11.846Z,0.68
2023-01-29T09:27:11.639Z,0.75
2023-01-29T09:28:11.865Z,0.76
2023-01-29T09:29:11.600Z,0.83
2023-01-29T09:30:11.795Z,0.86
2023-01-29T09:31:11.570Z,0.91
2023-01-29T09:32:11.732Z,0.96
2023-01-29T09:33:11.543Z,1.04
2023-01-29T09:34:11.820Z,1.05
2023-01-29T09:35:11.480Z,1.08
2023-01-29T09:36:11.660Z,1.08
2023-01-29T09:37:11.533Z,1.06
2023-01-29T09:38:11.667Z,1.00
2023-01-29T09:39:11.434Z,0.91
2023-01-29T09:40:11.761Z,0.75
2023-01-29T09:41:11.461Z,0.62
2023-01-29T09:42:11.711Z,0.53
2023-01-29T09:43:11.444Z,0.51
2023-01-29T09:44:11.674Z,0.53
2023-01-29T09:45:11.352Z,0.58
2023-01-29T09:46:11.500Z,0.61
2023-01-29T09:47:11.318Z,0.70
2023-01-29T09:48:11.616Z,0.68
2023-01-29T09:49:11.358Z,0.69
2023-01-29T09:50:11.610Z,0.69
2023-01-29T09:51:11.266Z,0.69
2023-01-29T09:52:12.461Z,0.69
2023-01-29T09:53:11.300Z,0.72
2023-01-29T09:54:11.603Z,0.78
2023-01-29T09:55:11.496Z,0.86
2023-01-29T09:56:11.233Z,0.88
2023-01-29T09:57:11.457Z,0.83
2023-01-29T09:58:11.217Z,0.76
2023-01-29T09:59:11.527Z,0.76
2023-01-29T10:00:11.203Z,0.76
2023-01-29T10:01:11.473Z,0.78
2023-01-29T10:02:11.297Z,0.78
2023-01-29T10:03:11.501Z,0.80
2023-01-29T10:04:11.224Z,0.80
2023-01-29T10:05:11.486Z,0.88
2023-01-29T10:06:11.166Z,0.87
2023-01-29T10:07:11.241Z,0.91
2023-01-29T10:08:11.152Z,0.90
2023-01-29T10:09:11.334Z,0.88
2023-01-29T10:10:11.115Z,0.90
2023-01-29T10:11:11.771Z,0.80
2023-01-29T10:12:11.047Z,0.79
2023-01-29T10:13:11.157Z,0.84
2023-01-29T10:14:11.042Z,0.88
2023-01-29T10:15:11.195Z,0.86
2023-01-29T10:16:11.200Z,0.94
2023-01-29T10:17:10.959Z,1.02
2023-01-29T10:18:11.117Z,1.09
2023-01-29T10:19:10.933Z,1.18
2023-01-29T10:20:11.171Z,1.23
2023-01-29T10:21:11.107Z,1.34
2023-01-29T10:22:10.927Z,1.30
2023-01-29T10:23:11.104Z,1.22
2023-01-29T10:24:10.909Z,1.27
2023-01-29T10:25:11.199Z,1.29
2023-01-29T10:26:10.909Z,1.34
2023-01-29T10:27:11.046Z,1.50
2023-01-29T10:28:10.868Z,1.60
2023-01-29T10:29:12.851Z,1.69
2023-01-29T10:30:10.806Z,1.68
2023-01-29T10:31:11.256Z,1.68
2023-01-29T10:32:10.920Z,1.69
2023-01-29T10:33:10.965Z,1.79
2023-01-29T10:34:10.752Z,1.66
2023-01-29T10:35:11.092Z,1.58
2023-01-29T10:36:10.731Z,1.52
2023-01-29T10:37:11.009Z,1.55
2023-01-29T10:38:10.743Z,1.59
2023-01-29T10:39:10.983Z,1.62
2023-01-29T10:40:10.686Z,1.65
2023-01-29T10:41:10.854Z,1.68
2023-01-29T10:42:10.723Z,1.76
2023-01-29T10:43:10.789Z,1.83
2023-01-29T10:44:10.665Z,1.91
2023-01-29T10:45:10.796Z,1.91
2023-01-29T10:46:10.638Z,1.90
2023-01-29T10:47:10.958Z,2.00
2023-01-29T10:48:10.610Z,2.12
2023-01-29T10:49:10.712Z,2.24
2023-01-29T10:50:10.580Z,2.38
2023-01-29T10:51:10.787Z,2.43
2023-01-29T10:52:10.646Z,2.36
2023-01-29T10:53:10.697Z,2.45
2023-01-29T10:54:10.492Z,2.53
2023-01-29T10:55:10.849Z,2.53
2023-01-29T10:56:21.938Z,2.59
2023-01-29T10:57:10.480Z,2.71
2023-01-29T10:58:10.733Z,2.81
2023-01-29T10:59:10.470Z,2.93
2023-01-29T11:00:10.559Z,3.02
2023-01-29T11:01:10.624Z,3.11
2023-01-29T11:02:10.708Z,3.28
2023-01-29T11:03:18.160Z,3.15
2023-01-29T11:04:10.400Z,3.21
2023-01-29T11:05:10.702Z,3.14
2023-01-29T11:06:10.551Z,3.23
2023-01-29T11:07:10.645Z,3.26
2023-01-29T11:08:11.284Z,3.28
2023-01-29T11:09:10.336Z,3.36
2023-01-29T11:11:14.218Z,3.23
2023-01-29T11:12:14.992Z,2.84
2023-01-29T11:13:15.068Z,2.61
2023-01-29T11:14:14.890Z,2.54
2023-01-29T11:15:15.088Z,2.46
2023-01-29T11:16:14.930Z,2.52
2023-01-29T11:17:15.268Z,2.52
2023-01-29T11:18:15.002Z,2.49
2023-01-29T11:19:14.862Z,2.49
2023-01-29T11:20:15.550Z,2.52
2023-01-29T11:21:14.879Z,2.35
2023-01-29T11:22:14.912Z,2.23
2023-01-29T11:23:14.807Z,2.18
2023-01-29T11:24:15.033Z,2.25
2023-01-29T11:25:14.778Z,2.34
2023-01-29T11:26:15.295Z,2.49
2023-01-29T11:27:14.760Z,2.56
2023-01-29T11:28:15.067Z,2.57
2023-01-29T11:29:14.726Z,2.74
2023-01-29T11:30:15.432Z,2.84
2023-01-29T11:31:14.909Z,2.82
2023-01-29T11:32:15.095Z,2.72
2023-01-29T11:33:14.865Z,2.87
2023-01-29T11:34:14.920Z,3.65
2023-01-29T11:35:14.859Z,4.50
2023-01-29T11:36:14.902Z,5.12
2023-01-29T11:37:14.852Z,5.12
2023-01-29T11:38:14.858Z,5.07
2023-01-29T11:39:14.718Z,4.97
2023-01-29T11:40:15.138Z,4.70
2023-01-29T11:41:14.909Z,4.22
2023-01-29T11:42:15.128Z,3.76
2023-01-29T11:43:14.565Z,3.58
2023-01-29T11:44:14.656Z,3.58
2023-01-29T11:45:14.550Z,3.55
2023-01-29T11:46:14.818Z,3.50
2023-01-29T11:47:14.516Z,3.28
2023-01-29T11:48:14.631Z,3.24
2023-01-29T11:49:20.734Z,3.31
2023-01-29T11:50:14.828Z,3.32
2023-01-29T11:51:14.636Z,3.17
2023-01-29T11:52:14.407Z,2.90
2023-01-29T11:53:14.632Z,2.89
2023-01-29T11:54:14.446Z,2.85
2023-01-29T11:55:15.734Z,2.77
2023-01-29T11:56:14.869Z,2.74
2023-01-29T11:57:14.663Z,2.66
2023-01-29T11:58:14.338Z,2.54
2023-01-29T11:59:14.543Z,2.45
2023-01-29T12:00:14.842Z,2.39
2023-01-29T12:01:14.553Z,2.42
2023-01-29T12:02:14.304Z,2.41
2023-01-29T12:03:14.498Z,2.39
2023-01-29T12:04:14.318Z,2.41
2023-01-29T12:05:14.574Z,2.39
2023-01-29T12:06:14.280Z,2.30
2023-01-29T12:07:15.570Z,2.24
2023-01-29T12:08:14.269Z,2.24
2023-01-29T12:09:16.023Z,2.12
2023-01-29T12:10:14.527Z,2.07
2023-01-29T12:11:14.260Z,2.10
2023-01-29T12:12:14.364Z,2.16
2023-01-29T12:13:14.176Z,2.21
2023-01-29T12:14:14.375Z,2.31
2023-01-29T12:15:14.157Z,2.42
2023-01-29T12:16:14.481Z,2.53
2023-01-29T12:17:14.193Z,2.64
2023-01-29T12:18:14.422Z,2.71
2023-01-29T12:19:14.112Z,2.79
2023-01-29T12:20:14.284Z,2.75
2023-01-29T12:21:14.126Z,2.79
2023-01-29T12:22:14.218Z,2.72
2023-01-29T12:23:14.027Z,2.71
2023-01-29T12:24:14.246Z,2.79
2023-01-29T12:25:14.091Z,2.81
2023-01-29T12:26:16.604Z,2.81
2023-01-29T12:27:14.316Z,2.79
2023-01-29T12:28:15.300Z,2.81
2023-01-29T12:29:14.002Z,2.79
2023-01-29T12:30:16.603Z,2.78
2023-01-29T12:31:15.386Z,2.71
2023-01-29T12:32:13.952Z,2.64
2023-01-29T12:33:15.138Z,2.66
2023-01-29T12:34:13.907Z,2.69
2023-01-29T12:35:14.156Z,2.67
2023-01-29T12:36:14.037Z,2.67
2023-01-29T12:37:13.905Z,2.69
2023-01-29T12:38:15.051Z,2.99
2023-01-29T12:39:13.853Z,3.14
2023-01-29T12:40:16.684Z,3.18
2023-01-29T12:41:14.104Z,3.24
2023-01-29T12:42:13.867Z,3.21
2023-01-29T12:43:16.128Z,3.31
2023-01-29T12:44:13.807Z,3.43
2023-01-29T12:45:16.139Z,3.54
2023-01-29T12:46:13.803Z,3.55
2023-01-29T12:47:17.241Z,3.58
2023-01-29T12:48:13.722Z,3.54
2023-01-29T12:49:36.811Z,3.62
2023-01-29T12:50:13.736Z,3.79
2023-01-29T12:51:13.735Z,3.84
2023-01-29T12:52:35.870Z,3.90
2023-01-29T12:53:13.645Z,3.97
2023-01-29T12:54:13.680Z,4.05
2023-01-29T12:56:26.903Z,3.78
2023-01-29T12:57:26.691Z,3.73
2023-01-29T12:58:26.678Z,3.66
2023-01-29T12:59:28.359Z,3.68
2023-01-29T13:00:29.141Z,3.76
2023-01-29T13:01:27.209Z,3.76
2023-01-29T13:02:26.684Z,3.54
2023-01-29T13:03:26.535Z,3.91
2023-01-29T13:04:26.737Z,4.62
2023-01-29T13:05:27.083Z,5.39
2023-01-29T13:06:27.750Z,5.94
2023-01-29T13:07:26.736Z,6.27
2023-01-29T13:08:26.419Z,6.33
2023-01-29T13:09:26.582Z,6.01
2023-01-29T13:10:26.454Z,5.86
2023-01-29T13:11:27.630Z,5.82
2023-01-29T13:12:26.603Z,5.63
2023-01-29T13:13:26.359Z,5.48
2023-01-29T13:14:27.613Z,5.63
2023-01-29T13:15:26.371Z,5.51
2023-01-29T13:16:28.636Z,5.63
2023-01-29T13:17:26.411Z,5.89
2023-01-29T13:18:26.625Z,5.86
2023-01-29T13:19:26.359Z,5.74